Queen Of Nanaimo — VCNX — position and weather

sailwx.info

Track history (hours):
 
Tides and Currents Weather Stations Pressure Air Temp Water Temp Dewpoint Dewpoint Depression Visibility Wind Speed Wind Dir Waves Ship Positions

Queen Of Nanaimo

Last reported at 2017-Jun-26 09:54 UTC. Time now 2017-Jun-26 18:55 UTC.
Position N 49°00' W 123°08'.

Length 130 m; draft 4 m.

Type: Passenger vessel. MMSI: 316001254.

Date/timePositionNaut miles runAvg speedWind from/ knotsBaromVisibWave heightAir tempDewpointWater temp
2017-Jun-26 09:54N 49°00' W 123°08'0 0.1
2017-Jun-26 09:18N 49°00' W 123°08'0 0.0
2017-Jun-26 08:54N 49°00' W 123°08'0 0.0
2017-Jun-26 08:30N 49°00' W 123°08'0 0.0
2017-Jun-26 04:57N 49°00' W 123°08'0 0.0
2017-Jun-26 04:30N 49°00' W 123°08'0 0.0
2017-Jun-26 04:00N 49°00' W 123°08'0 0.0
2017-Jun-26 01:30N 49°00' W 123°08'2 3.5
2017-Jun-26 00:59N 48°59' W 123°07'1 2.2
2017-Jun-26 00:27N 48°57' W 123°07'1 3.1
2017-Jun-25 23:59N 48°59' W 123°08'1 1.4
2017-Jun-25 23:28N 48°58' W 123°07'0 0.7
2017-Jun-25 23:00N 48°58' W 123°07'1 2.7
2017-Jun-25 22:30N 48°60' W 123°08'1 0.3
2017-Jun-25 20:26N 49°00' W 123°08'4 9.0
2017-Jun-25 19:59N 48°57' W 123°04'0 0.2
2017-Jun-25 19:30N 48°57' W 123°04'4 1.1
2017-Jun-25 15:56N 49°00' W 123°08'0 0.0
2017-Jun-25 15:14N 49°00' W 123°08'0 0.0
2017-Jun-25 14:44N 49°00' W 123°08'0 0.0
2017-Jun-25 07:56N 49°00' W 123°08'0 0.0
2017-Jun-25 07:26N 49°00' W 123°08'0 0.0
2017-Jun-25 06:56N 49°00' W 123°08'0 0.1
2017-Jun-25 06:26N 49°00' W 123°08'0 0.0
2017-Jun-25 05:38N 49°00' W 123°08'0 0.0
2017-Jun-25 05:08N 49°00' W 123°08'0 0.0
2017-Jun-25 04:56N 49°00' W 123°08'0 0.0
2017-Jun-25 04:20N 49°00' W 123°08'0 0.0
2017-Jun-25 03:56N 49°00' W 123°08'0 0.0
2017-Jun-25 03:29N 49°00' W 123°08'0 0.0
2017-Jun-24 20:20N 49°00' W 123°08'0 0.0
2017-Jun-24 19:59N 49°00' W 123°08'0 0.0
2017-Jun-24 19:26N 49°00' W 123°08'0 0.0
2017-Jun-24 18:05N 49°00' W 123°08'0 0.0
2017-Jun-24 17:47N 49°00' W 123°08'0 0.0
2017-Jun-24 16:32N 49°00' W 123°08'0 0.0
2017-Jun-24 16:11N 49°00' W 123°08'0 0.0
2017-Jun-24 14:50N 49°00' W 123°08'0 0.0
2017-Jun-24 13:38N 49°00' W 123°08'0 0.0
2017-Jun-24 11:02N 49°00' W 123°08'0 0.0
2017-Jun-24 10:56N 49°00' W 123°08'0 0.0
2017-Jun-24 10:29N 49°00' W 123°08'0 0.0
2017-Jun-24 09:44N 49°00' W 123°08'0 0.0
2017-Jun-24 07:05N 49°00' W 123°08'0 0.0
2017-Jun-24 06:47N 49°00' W 123°08'0 0.0
2017-Jun-24 06:20N 49°00' W 123°08'0 0.0
2017-Jun-24 04:30N 49°00' W 123°08'0 0.0
2017-Jun-24 03:55N 49°00' W 123°08'0 0.0
2017-Jun-24 03:25N 49°00' W 123°08'0 0.0
2017-Jun-24 02:58N 49°00' W 123°08'0 0.0
2017-Jun-24 02:30N 49°00' W 123°08'0 0.1
2017-Jun-24 02:00N 49°00' W 123°08'0 0.1
2017-Jun-24 01:30N 49°00' W 123°08'0 0.0
2017-Jun-24 01:00N 49°00' W 123°08'0 0.1
2017-Jun-24 00:30N 49°00' W 123°08'0 0.0
2017-Jun-23 23:58N 49°00' W 123°08'0 0.1
2017-Jun-23 23:30N 49°00' W 123°08'0 0.1
2017-Jun-23 22:59N 49°00' W 123°08'2 4.1
2017-Jun-23 22:30N 48°58' W 123°08'4 7.4
2017-Jun-23 22:00N 48°56' W 123°04'611.3
2017-Jun-23 21:30N 48°52' W 123°10'4 8.5
2017-Jun-23 20:58N 48°55' W 123°13'5 9.9
2017-Jun-23 20:29N 48°60' W 123°09'1 1.5
2017-Jun-23 19:42N 49°00' W 123°08'0 0.0
2017-Jun-23 19:27N 49°00' W 123°08'0 0.0
2017-Jun-23 19:00N 49°00' W 123°08'0 0.1
2017-Jun-23 18:27N 49°00' W 123°08'0 0.1
2017-Jun-23 17:57N 49°00' W 123°08'0 0.0
2017-Jun-23 17:30N 49°00' W 123°08'0 0.0
2017-Jun-23 16:48N 49°00' W 123°08'0 0.0
2017-Jun-23 16:30N 49°00' W 123°08'0 0.0
2017-Jun-23 15:48N 49°00' W 123°08'0 0.0
2017-Jun-23 09:48N 49°00' W 123°08'0 0.0
2017-Jun-23 06:00N 49°00' W 123°08'0 0.0
2017-Jun-22 22:35N 49°00' W 123°08'0 0.5
2017-Jun-22 22:30N 49°00' W 123°08'0 0.0
2017-Jun-22 21:49N 49°00' W 123°08'0 0.0
2017-Jun-22 21:27N 49°00' W 123°08'0 0.0
2017-Jun-22 20:58N 49°00' W 123°08'0 0.8
2017-Jun-22 20:29N 49°00' W 123°08'3 6.4
2017-Jun-22 20:00N 48°57' W 123°10'5 9.5
2017-Jun-22 19:30N 48°53' W 123°14'3 3.6
2017-Jun-22 18:48N 48°53' W 123°18'514.9
2017-Jun-22 18:30N 48°57' W 123°15'611.0
2017-Jun-22 17:59N 49°00' W 123°08'0 0.0
2017-Jun-22 17:30N 49°00' W 123°08'0 0.0
2017-Jun-22 17:00N 49°00' W 123°08'0 0.3
2017-Jun-22 16:30N 49°00' W 123°08'713.8
2017-Jun-22 16:00N 48°55' W 123°14'4 5.3
2017-Jun-22 15:21N 48°52' W 123°18'2 5.9
2017-Jun-22 15:01N 48°51' W 123°20'1 2.2
2017-Jun-22 14:30N 48°50' W 123°20'4 3.6
2017-Jun-22 13:27N 48°51' W 123°26'1 0.2
2017-Jun-22 10:23N 48°51' W 123°27'0 0.0
2017-Jun-22 09:41N 48°51' W 123°27'0 0.0
2017-Jun-22 09:23N 48°51' W 123°27'1 0.2
2017-Jun-22 05:31N 48°51' W 123°26'111.2
2017-Jun-22 05:28N 48°50' W 123°25'5 9.9
2017-Jun-22 05:00N 48°48' W 123°19'3 4.8
2017-Jun-22 04:27N 48°51' W 123°20'2 4.3
2017-Jun-22 03:59N 48°53' W 123°19'3 6.9
2017-Jun-22 03:31N 48°55' W 123°16'714.3
2017-Jun-22 03:00N 49°00' W 123°08'0 0.3
2017-Jun-22 02:29N 49°00' W 123°08'3 5.9
2017-Jun-22 01:59N 48°58' W 123°10'815.0
2017-Jun-22 01:26N 48°52' W 123°18'1 2.2
2017-Jun-22 00:50N 48°51' W 123°20'3 8.6
2017-Jun-22 00:31N 48°48' W 123°19'3 5.9
2017-Jun-22 00:00N 48°51' W 123°20'713.0
2017-Jun-21 23:26N 48°57' W 123°14'512.2
2017-Jun-21 23:00N 49°00' W 123°08'0 0.1
2017-Jun-21 22:30N 49°00' W 123°08'5 9.8
2017-Jun-21 21:59N 48°56' W 123°12'714.3
2017-Jun-21 21:29N 48°52' W 123°20'4 2.3
2017-Jun-21 19:54N 48°48' W 123°23'3 6.4
2017-Jun-21 19:30N 48°48' W 123°19'3 4.6
2017-Jun-21 18:55N 48°51' W 123°20'2 4.6
2017-Jun-21 18:30N 48°53' W 123°19'2 3.8
2017-Jun-21 18:00N 48°54' W 123°17'714.4
2017-Jun-21 17:30N 48°59' W 123°09'2 3.0
2017-Jun-21 17:00N 49°00' W 123°08'0 0.3
2017-Jun-21 16:30N 49°00' W 123°08'612.8
2017-Jun-21 16:00N 48°55' W 123°13'5 6.3
2017-Jun-21 15:17N 48°52' W 123°18'1 5.2
2017-Jun-21 15:00N 48°51' W 123°20'1 1.6
2017-Jun-21 14:31N 48°50' W 123°20'4 1.3
2017-Jun-21 11:13N 48°51' W 123°27'0 0.0
2017-Jun-21 10:57N 48°51' W 123°27'0 0.0
2017-Jun-21 08:56N 48°51' W 123°27'0 0.0
2017-Jun-21 08:28N 48°51' W 123°27'0 0.0
2017-Jun-21 07:24N 48°51' W 123°27'2 0.6
2017-Jun-21 05:02N 48°50' W 123°25'213.9
2017-Jun-21 04:53N 48°49' W 123°23'3 7.6
2017-Jun-21 04:30N 48°48' W 123°19'3 5.1
2017-Jun-21 03:59N 48°51' W 123°20'2 3.0
2017-Jun-21 03:18N 48°53' W 123°18'312.0
2017-Jun-21 03:01N 48°55' W 123°15'713.8
2017-Jun-21 02:30N 49°00' W 123°08'0 0.2
2017-Jun-21 02:00N 49°00' W 123°08'1 1.6
2017-Jun-21 01:30N 48°60' W 123°08'613.2
2017-Jun-21 01:00N 48°55' W 123°14'3 5.6
2017-Jun-21 00:24N 48°52' W 123°18'2 5.0
2017-Jun-21 00:00N 48°51' W 123°20'0 0.1
2017-Jun-20 23:25N 48°51' W 123°20'3 6.8
2017-Jun-20 23:01N 48°48' W 123°19'4 8.6
2017-Jun-20 22:30N 48°50' W 123°25'2 0.7
2017-Jun-20 19:54N 48°49' W 123°23'3 7.6
2017-Jun-20 19:30N 48°48' W 123°19'3 5.4
2017-Jun-20 19:00N 48°51' W 123°20'3 2.7
2017-Jun-20 18:03N 48°53' W 123°18'113.5
2017-Jun-20 18:00N 48°54' W 123°17'713.9
2017-Jun-20 17:30N 48°59' W 123°10'2 4.3
2017-Jun-20 16:58N 49°00' W 123°08'0 0.1
2017-Jun-20 16:19N 49°00' W 123°08'310.8
2017-Jun-20 16:00N 48°58' W 123°11'9 8.3
2017-Jun-20 14:57N 48°52' W 123°21'1 2.2
2017-Jun-20 14:29N 48°51' W 123°20'3 3.5
2017-Jun-20 13:30N 48°50' W 123°25'0 0.0
2017-Jun-20 05:09N 48°50' W 123°25'213.5
2017-Jun-20 04:59N 48°48' W 123°23'2 3.7
2017-Jun-20 04:30N 48°48' W 123°20'3 6.0
2017-Jun-20 04:00N 48°51' W 123°21'2 4.2
2017-Jun-20 03:25N 48°53' W 123°18'613.9
2017-Jun-20 03:00N 48°57' W 123°13'4 6.2
2017-Jun-20 02:18N 49°00' W 123°08'0 0.0
2017-Jun-20 01:56N 49°00' W 123°08'2 4.0
2017-Jun-20 01:30N 48°59' W 123°09'714.7
2017-Jun-20 01:00N 48°54' W 123°17'2 2.9
2017-Jun-20 00:23N 48°52' W 123°18'2 4.5
2017-Jun-20 00:00N 48°51' W 123°20'0 0.9
2017-Jun-19 23:30N 48°50' W 123°20'3 5.1
2017-Jun-19 23:00N 48°48' W 123°19'5 8.6
2017-Jun-19 22:28N 48°50' W 123°25'0 0.1
2017-Jun-19 19:55N 48°50' W 123°25'410.7
2017-Jun-19 19:30N 48°48' W 123°19'3 4.1
2017-Jun-19 18:50N 48°51' W 123°20'2 2.9
2017-Jun-19 18:09N 48°53' W 123°19'214.1
2017-Jun-19 18:00N 48°54' W 123°17'814.9
2017-Jun-19 17:30N 48°60' W 123°09'1 1.6
2017-Jun-19 16:56N 49°00' W 123°08'0 0.0
2017-Jun-19 16:27N 49°00' W 123°08'4 9.7
2017-Jun-19 16:00N 48°57' W 123°11'7 7.3
2017-Jun-19 15:04N 48°52' W 123°18'112.9
2017-Jun-19 14:58N 48°52' W 123°21'1 1.9
2017-Jun-19 14:30N 48°51' W 123°20'3 3.3
2017-Jun-19 13:30N 48°50' W 123°25'2 0.2
2017-Jun-19 05:54N 48°51' W 123°24'511.7
2017-Jun-19 05:31N 48°53' W 123°18'815.2
2017-Jun-19 05:00N 48°59' W 123°10'2 3.8
2017-Jun-19 04:31N 49°00' W 123°08'611.1
2017-Jun-19 04:00N 48°56' W 123°12'714.2
2017-Jun-19 03:30N 48°51' W 123°21'1 1.7
2017-Jun-19 02:54N 48°51' W 123°20'2 5.6
2017-Jun-19 02:30N 48°53' W 123°18'815.0
2017-Jun-19 02:00N 48°58' W 123°11'3 4.6
2017-Jun-19 01:25N 49°00' W 123°08'2 4.2
2017-Jun-19 01:00N 48°59' W 123°09'10 8.1
2017-Jun-18 23:48N 48°51' W 123°19'1 3.1
2017-Jun-18 23:30N 48°51' W 123°20'3 5.6
2017-Jun-18 23:00N 48°51' W 123°24'1 0.6
2017-Jun-18 20:54N 48°50' W 123°25'511.9
2017-Jun-18 20:30N 48°48' W 123°19'3 5.6
2017-Jun-18 20:00N 48°51' W 123°20'1 2.0
2017-Jun-18 19:30N 48°51' W 123°21'3 4.2
2017-Jun-18 18:54N 48°53' W 123°18'715.4
2017-Jun-18 18:29N 48°58' W 123°12'3 7.2
2017-Jun-18 18:00N 49°00' W 123°08'0 0.0
2017-Jun-18 17:30N 49°00' W 123°08'4 7.3
2017-Jun-18 16:58N 48°57' W 123°11'7 7.7
2017-Jun-18 16:07N 48°52' W 123°18'212.2
2017-Jun-18 15:58N 48°52' W 123°21'1 2.3
2017-Jun-18 15:30N 48°51' W 123°20'3 5.5
2017-Jun-18 15:00N 48°48' W 123°19'5 8.2
2017-Jun-18 14:27N 48°50' W 123°25'0 0.0
2017-Jun-18 05:46N 48°50' W 123°25'312.2
2017-Jun-18 05:30N 48°51' W 123°20'2 3.2
2017-Jun-18 04:59N 48°52' W 123°18'4 7.6
2017-Jun-18 04:26N 48°56' W 123°15'614.9
2017-Jun-18 04:00N 49°00' W 123°08'0 0.7
2017-Jun-18 03:29N 49°00' W 123°08'0 0.0
2017-Jun-18 02:50N 49°00' W 123°08'0 0.0
2017-Jun-18 02:30N 49°00' W 123°08'0 0.0
2017-Jun-18 01:59N 49°00' W 123°08'2 3.8
2017-Jun-18 01:30N 48°59' W 123°09'815.5
2017-Jun-18 00:59N 48°53' W 123°18'2 3.7
2017-Jun-18 00:29N 48°51' W 123°19'1 1.6
2017-Jun-17 23:56N 48°51' W 123°20'3 6.4
2017-Jun-17 23:30N 48°48' W 123°19'4 7.2
2017-Jun-17 22:53N 48°50' W 123°25'0 0.2
2017-Jun-17 20:30N 48°50' W 123°25'612.8
2017-Jun-17 20:00N 48°54' W 123°17'815.4
2017-Jun-17 19:30N 48°60' W 123°09'1 1.8
2017-Jun-17 18:49N 49°00' W 123°08'413.3
2017-Jun-17 18:29N 48°57' W 123°12'715.1
2017-Jun-17 18:01N 48°51' W 123°19'1 1.1
2017-Jun-17 17:11N 48°51' W 123°20'1 5.2
2017-Jun-17 16:55N 48°52' W 123°19'1 2.1
2017-Jun-17 16:24N 48°53' W 123°18'615.0
2017-Jun-17 15:59N 48°58' W 123°12'4 4.8
2017-Jun-17 15:11N 49°00' W 123°08'0 0.0
2017-Jun-17 14:48N 49°00' W 123°08'1214.0
2017-Jun-17 13:56N 48°52' W 123°21'3 0.4
2017-Jun-17 05:42N 48°50' W 123°25'314.4
2017-Jun-17 05:30N 48°48' W 123°22'1 2.6
2017-Jun-17 05:00N 48°48' W 123°20'6 6.1
2017-Jun-17 04:04N 48°54' W 123°17'115.0
2017-Jun-17 04:00N 48°54' W 123°17'815.0
2017-Jun-17 03:30N 48°60' W 123°08'1 0.8
2017-Jun-17 02:41N 49°00' W 123°08'0 0.2
2017-Jun-17 02:27N 49°00' W 123°08'1114.8
2017-Jun-17 01:43N 48°52' W 123°18'2 7.6
2017-Jun-17 01:30N 48°51' W 123°20'0 0.8
2017-Jun-17 00:54N 48°51' W 123°20'2 4.6
2017-Jun-17 00:29N 48°53' W 123°19'2 4.8
2017-Jun-16 23:59N 48°55' W 123°17'715.2
2017-Jun-16 23:30N 48°60' W 123°09'1 1.6
2017-Jun-16 23:00N 49°00' W 123°08'0 0.1
2017-Jun-16 22:27N 49°00' W 123°08'1214.2
2017-Jun-16 21:39N 48°51' W 123°19'213.2
2017-Jun-16 21:31N 48°51' W 123°22'2 1.7
2017-Jun-16 20:05N 48°50' W 123°25'213.9
2017-Jun-16 19:54N 48°48' W 123°23'3 5.9
2017-Jun-16 19:28N 48°48' W 123°19'3 4.2
2017-Jun-16 18:50N 48°51' W 123°20'3 3.3
2017-Jun-16 18:00N 48°53' W 123°18'815.3
2017-Jun-16 17:30N 48°59' W 123°10'2 3.2
2017-Jun-16 16:51N 49°00' W 123°08'0 0.0
2017-Jun-16 16:21N 49°00' W 123°08'3 7.7
2017-Jun-16 15:58N 48°58' W 123°10'9 9.2
2017-Jun-16 14:57N 48°52' W 123°21'1 2.0
2017-Jun-16 14:24N 48°51' W 123°20'3 3.8
2017-Jun-16 13:29N 48°50' W 123°25'2 0.5
2017-Jun-16 10:10N 48°51' W 123°27'  
Track history (hours):
 
Tides and Currents Weather Stations Pressure Air Temp Water Temp Dewpoint Dewpoint Depression Visibility Wind Speed Wind Dir Waves Ship Positions

Queen Of Nanaimo

Last reported at 2017-Jun-26 09:54 UTC. Time now 2017-Jun-26 18:55 UTC.
Position N 49°00' W 123°08'.

Length 130 m; draft 4 m.

Type: Passenger vessel. MMSI: 316001254.

Date/timePositionNaut miles runAvg speedWind from/ knotsBaromVisibWave heightAir tempDewpointWater temp
2017-Jun-26 09:54N 49°00' W 123°08'0 0.1
2017-Jun-26 09:18N 49°00' W 123°08'0 0.0
2017-Jun-26 08:54N 49°00' W 123°08'0 0.0
2017-Jun-26 08:30N 49°00' W 123°08'0 0.0
2017-Jun-26 04:57N 49°00' W 123°08'0 0.0
2017-Jun-26 04:30N 49°00' W 123°08'0 0.0
2017-Jun-26 04:00N 49°00' W 123°08'0 0.0
2017-Jun-26 01:30N 49°00' W 123°08'2 3.5
2017-Jun-26 00:59N 48°59' W 123°07'1 2.2
2017-Jun-26 00:27N 48°57' W 123°07'1 3.1
2017-Jun-25 23:59N 48°59' W 123°08'1 1.4
2017-Jun-25 23:28N 48°58' W 123°07'0 0.7
2017-Jun-25 23:00N 48°58' W 123°07'1 2.7
2017-Jun-25 22:30N 48°60' W 123°08'1 0.3
2017-Jun-25 20:26N 49°00' W 123°08'4 9.0
2017-Jun-25 19:59N 48°57' W 123°04'0 0.2
2017-Jun-25 19:30N 48°57' W 123°04'4 1.1
2017-Jun-25 15:56N 49°00' W 123°08'0 0.0
2017-Jun-25 15:14N 49°00' W 123°08'0 0.0
2017-Jun-25 14:44N 49°00' W 123°08'0 0.0
2017-Jun-25 07:56N 49°00' W 123°08'0 0.0
2017-Jun-25 07:26N 49°00' W 123°08'0 0.0
2017-Jun-25 06:56N 49°00' W 123°08'0 0.1
2017-Jun-25 06:26N 49°00' W 123°08'0 0.0
2017-Jun-25 05:38N 49°00' W 123°08'0 0.0
2017-Jun-25 05:08N 49°00' W 123°08'0 0.0
2017-Jun-25 04:56N 49°00' W 123°08'0 0.0
2017-Jun-25 04:20N 49°00' W 123°08'0 0.0
2017-Jun-25 03:56N 49°00' W 123°08'0 0.0
2017-Jun-25 03:29N 49°00' W 123°08'0 0.0
2017-Jun-24 20:20N 49°00' W 123°08'0 0.0
2017-Jun-24 19:59N 49°00' W 123°08'0 0.0
2017-Jun-24 19:26N 49°00' W 123°08'0 0.0
2017-Jun-24 18:05N 49°00' W 123°08'0 0.0
2017-Jun-24 17:47N 49°00' W 123°08'0 0.0
2017-Jun-24 16:32N 49°00' W 123°08'0 0.0
2017-Jun-24 16:11N 49°00' W 123°08'0 0.0
2017-Jun-24 14:50N 49°00' W 123°08'0 0.0
2017-Jun-24 13:38N 49°00' W 123°08'0 0.0
2017-Jun-24 11:02N 49°00' W 123°08'0 0.0
2017-Jun-24 10:56N 49°00' W 123°08'0 0.0
2017-Jun-24 10:29N 49°00' W 123°08'0 0.0
2017-Jun-24 09:44N 49°00' W 123°08'0 0.0
2017-Jun-24 07:05N 49°00' W 123°08'0 0.0
2017-Jun-24 06:47N 49°00' W 123°08'0 0.0
2017-Jun-24 06:20N 49°00' W 123°08'0 0.0
2017-Jun-24 04:30N 49°00' W 123°08'0 0.0
2017-Jun-24 03:55N 49°00' W 123°08'0 0.0
2017-Jun-24 03:25N 49°00' W 123°08'0 0.0
2017-Jun-24 02:58N 49°00' W 123°08'0 0.0
2017-Jun-24 02:30N 49°00' W 123°08'0 0.1
2017-Jun-24 02:00N 49°00' W 123°08'0 0.1
2017-Jun-24 01:30N 49°00' W 123°08'0 0.0
2017-Jun-24 01:00N 49°00' W 123°08'0 0.1
2017-Jun-24 00:30N 49°00' W 123°08'0 0.0
2017-Jun-23 23:58N 49°00' W 123°08'0 0.1
2017-Jun-23 23:30N 49°00' W 123°08'0 0.1
2017-Jun-23 22:59N 49°00' W 123°08'2 4.1
2017-Jun-23 22:30N 48°58' W 123°08'4 7.4
2017-Jun-23 22:00N 48°56' W 123°04'611.3
2017-Jun-23 21:30N 48°52' W 123°10'4 8.5
2017-Jun-23 20:58N 48°55' W 123°13'5 9.9
2017-Jun-23 20:29N 48°60' W 123°09'1 1.5
2017-Jun-23 19:42N 49°00' W 123°08'0 0.0
2017-Jun-23 19:27N 49°00' W 123°08'0 0.0
2017-Jun-23 19:00N 49°00' W 123°08'0 0.1
2017-Jun-23 18:27N 49°00' W 123°08'0 0.1
2017-Jun-23 17:57N 49°00' W 123°08'0 0.0
2017-Jun-23 17:30N 49°00' W 123°08'0 0.0
2017-Jun-23 16:48N 49°00' W 123°08'0 0.0
2017-Jun-23 16:30N 49°00' W 123°08'0 0.0
2017-Jun-23 15:48N 49°00' W 123°08'0 0.0
2017-Jun-23 09:48N 49°00' W 123°08'0 0.0
2017-Jun-23 06:00N 49°00' W 123°08'0 0.0
2017-Jun-22 22:35N 49°00' W 123°08'0 0.5
2017-Jun-22 22:30N 49°00' W 123°08'0 0.0
2017-Jun-22 21:49N 49°00' W 123°08'0 0.0
2017-Jun-22 21:27N 49°00' W 123°08'0 0.0
2017-Jun-22 20:58N 49°00' W 123°08'0 0.8
2017-Jun-22 20:29N 49°00' W 123°08'3 6.4
2017-Jun-22 20:00N 48°57' W 123°10'5 9.5
2017-Jun-22 19:30N 48°53' W 123°14'3 3.6
2017-Jun-22 18:48N 48°53' W 123°18'514.9
2017-Jun-22 18:30N 48°57' W 123°15'611.0
2017-Jun-22 17:59N 49°00' W 123°08'0 0.0
2017-Jun-22 17:30N 49°00' W 123°08'0 0.0
2017-Jun-22 17:00N 49°00' W 123°08'0 0.3
2017-Jun-22 16:30N 49°00' W 123°08'713.8
2017-Jun-22 16:00N 48°55' W 123°14'4 5.3
2017-Jun-22 15:21N 48°52' W 123°18'2 5.9
2017-Jun-22 15:01N 48°51' W 123°20'1 2.2
2017-Jun-22 14:30N 48°50' W 123°20'4 3.6
2017-Jun-22 13:27N 48°51' W 123°26'1 0.2
2017-Jun-22 10:23N 48°51' W 123°27'0 0.0
2017-Jun-22 09:41N 48°51' W 123°27'0 0.0
2017-Jun-22 09:23N 48°51' W 123°27'1 0.2
2017-Jun-22 05:31N 48°51' W 123°26'111.2
2017-Jun-22 05:28N 48°50' W 123°25'5 9.9
2017-Jun-22 05:00N 48°48' W 123°19'3 4.8
2017-Jun-22 04:27N 48°51' W 123°20'2 4.3
2017-Jun-22 03:59N 48°53' W 123°19'3 6.9
2017-Jun-22 03:31N 48°55' W 123°16'714.3
2017-Jun-22 03:00N 49°00' W 123°08'0 0.3
2017-Jun-22 02:29N 49°00' W 123°08'3 5.9
2017-Jun-22 01:59N 48°58' W 123°10'815.0
2017-Jun-22 01:26N 48°52' W 123°18'1 2.2
2017-Jun-22 00:50N 48°51' W 123°20'3 8.6
2017-Jun-22 00:31N 48°48' W 123°19'3 5.9
2017-Jun-22 00:00N 48°51' W 123°20'713.0
2017-Jun-21 23:26N 48°57' W 123°14'512.2
2017-Jun-21 23:00N 49°00' W 123°08'0 0.1
2017-Jun-21 22:30N 49°00' W 123°08'5 9.8
2017-Jun-21 21:59N 48°56' W 123°12'714.3
2017-Jun-21 21:29N 48°52' W 123°20'4 2.3
2017-Jun-21 19:54N 48°48' W 123°23'3 6.4
2017-Jun-21 19:30N 48°48' W 123°19'3 4.6
2017-Jun-21 18:55N 48°51' W 123°20'2 4.6
2017-Jun-21 18:30N 48°53' W 123°19'2 3.8
2017-Jun-21 18:00N 48°54' W 123°17'714.4
2017-Jun-21 17:30N 48°59' W 123°09'2 3.0
2017-Jun-21 17:00N 49°00' W 123°08'0 0.3
2017-Jun-21 16:30N 49°00' W 123°08'612.8
2017-Jun-21 16:00N 48°55' W 123°13'5 6.3
2017-Jun-21 15:17N 48°52' W 123°18'1 5.2
2017-Jun-21 15:00N 48°51' W 123°20'1 1.6
2017-Jun-21 14:31N 48°50' W 123°20'4 1.3
2017-Jun-21 11:13N 48°51' W 123°27'0 0.0
2017-Jun-21 10:57N 48°51' W 123°27'0 0.0
2017-Jun-21 08:56N 48°51' W 123°27'0 0.0
2017-Jun-21 08:28N 48°51' W 123°27'0 0.0
2017-Jun-21 07:24N 48°51' W 123°27'2 0.6
2017-Jun-21 05:02N 48°50' W 123°25'213.9
2017-Jun-21 04:53N 48°49' W 123°23'3 7.6
2017-Jun-21 04:30N 48°48' W 123°19'3 5.1
2017-Jun-21 03:59N 48°51' W 123°20'2 3.0
2017-Jun-21 03:18N 48°53' W 123°18'312.0
2017-Jun-21 03:01N 48°55' W 123°15'713.8
2017-Jun-21 02:30N 49°00' W 123°08'0 0.2
2017-Jun-21 02:00N 49°00' W 123°08'1 1.6
2017-Jun-21 01:30N 48°60' W 123°08'613.2
2017-Jun-21 01:00N 48°55' W 123°14'3 5.6
2017-Jun-21 00:24N 48°52' W 123°18'2 5.0
2017-Jun-21 00:00N 48°51' W 123°20'0 0.1
2017-Jun-20 23:25N 48°51' W 123°20'3 6.8
2017-Jun-20 23:01N 48°48' W 123°19'4 8.6
2017-Jun-20 22:30N 48°50' W 123°25'2 0.7
2017-Jun-20 19:54N 48°49' W 123°23'3 7.6
2017-Jun-20 19:30N 48°48' W 123°19'3 5.4
2017-Jun-20 19:00N 48°51' W 123°20'3 2.7
2017-Jun-20 18:03N 48°53' W 123°18'113.5
2017-Jun-20 18:00N 48°54' W 123°17'713.9
2017-Jun-20 17:30N 48°59' W 123°10'2 4.3
2017-Jun-20 16:58N 49°00' W 123°08'0 0.1
2017-Jun-20 16:19N 49°00' W 123°08'310.8
2017-Jun-20 16:00N 48°58' W 123°11'9 8.3
2017-Jun-20 14:57N 48°52' W 123°21'1 2.2
2017-Jun-20 14:29N 48°51' W 123°20'3 3.5
2017-Jun-20 13:30N 48°50' W 123°25'0 0.0
2017-Jun-20 05:09N 48°50' W 123°25'213.5
2017-Jun-20 04:59N 48°48' W 123°23'2 3.7
2017-Jun-20 04:30N 48°48' W 123°20'3 6.0
2017-Jun-20 04:00N 48°51' W 123°21'2 4.2
2017-Jun-20 03:25N 48°53' W 123°18'613.9
2017-Jun-20 03:00N 48°57' W 123°13'4 6.2
2017-Jun-20 02:18N 49°00' W 123°08'0 0.0
2017-Jun-20 01:56N 49°00' W 123°08'2 4.0
2017-Jun-20 01:30N 48°59' W 123°09'714.7
2017-Jun-20 01:00N 48°54' W 123°17'2 2.9
2017-Jun-20 00:23N 48°52' W 123°18'2 4.5
2017-Jun-20 00:00N 48°51' W 123°20'0 0.9
2017-Jun-19 23:30N 48°50' W 123°20'3 5.1
2017-Jun-19 23:00N 48°48' W 123°19'5 8.6
2017-Jun-19 22:28N 48°50' W 123°25'0 0.1
2017-Jun-19 19:55N 48°50' W 123°25'410.7
2017-Jun-19 19:30N 48°48' W 123°19'3 4.1
2017-Jun-19 18:50N 48°51' W 123°20'2 2.9
2017-Jun-19 18:09N 48°53' W 123°19'214.1
2017-Jun-19 18:00N 48°54' W 123°17'814.9
2017-Jun-19 17:30N 48°60' W 123°09'1 1.6
2017-Jun-19 16:56N 49°00' W 123°08'0 0.0
2017-Jun-19 16:27N 49°00' W 123°08'4 9.7
2017-Jun-19 16:00N 48°57' W 123°11'7 7.3
2017-Jun-19 15:04N 48°52' W 123°18'112.9
2017-Jun-19 14:58N 48°52' W 123°21'1 1.9
2017-Jun-19 14:30N 48°51' W 123°20'3 3.3
2017-Jun-19 13:30N 48°50' W 123°25'2 0.2
2017-Jun-19 05:54N 48°51' W 123°24'511.7
2017-Jun-19 05:31N 48°53' W 123°18'815.2
2017-Jun-19 05:00N 48°59' W 123°10'2 3.8
2017-Jun-19 04:31N 49°00' W 123°08'611.1
2017-Jun-19 04:00N 48°56' W 123°12'714.2
2017-Jun-19 03:30N 48°51' W 123°21'1 1.7
2017-Jun-19 02:54N 48°51' W 123°20'2 5.6
2017-Jun-19 02:30N 48°53' W 123°18'815.0
2017-Jun-19 02:00N 48°58' W 123°11'3 4.6
2017-Jun-19 01:25N 49°00' W 123°08'2 4.2
2017-Jun-19 01:00N 48°59' W 123°09'10 8.1
2017-Jun-18 23:48N 48°51' W 123°19'1 3.1
2017-Jun-18 23:30N 48°51' W 123°20'3 5.6
2017-Jun-18 23:00N 48°51' W 123°24'1 0.6
2017-Jun-18 20:54N 48°50' W 123°25'511.9
2017-Jun-18 20:30N 48°48' W 123°19'3 5.6
2017-Jun-18 20:00N 48°51' W 123°20'1 2.0
2017-Jun-18 19:30N 48°51' W 123°21'3 4.2
2017-Jun-18 18:54N 48°53' W 123°18'715.4
2017-Jun-18 18:29N 48°58' W 123°12'3 7.2
2017-Jun-18 18:00N 49°00' W 123°08'0 0.0
2017-Jun-18 17:30N 49°00' W 123°08'4 7.3
2017-Jun-18 16:58N 48°57' W 123°11'7 7.7
2017-Jun-18 16:07N 48°52' W 123°18'212.2
2017-Jun-18 15:58N 48°52' W 123°21'1 2.3
2017-Jun-18 15:30N 48°51' W 123°20'3 5.5
2017-Jun-18 15:00N 48°48' W 123°19'5 8.2
2017-Jun-18 14:27N 48°50' W 123°25'0 0.0
2017-Jun-18 05:46N 48°50' W 123°25'312.2
2017-Jun-18 05:30N 48°51' W 123°20'2 3.2
2017-Jun-18 04:59N 48°52' W 123°18'4 7.6
2017-Jun-18 04:26N 48°56' W 123°15'614.9
2017-Jun-18 04:00N 49°00' W 123°08'0 0.7
2017-Jun-18 03:29N 49°00' W 123°08'0 0.0
2017-Jun-18 02:50N 49°00' W 123°08'0 0.0
2017-Jun-18 02:30N 49°00' W 123°08'0 0.0
2017-Jun-18 01:59N 49°00' W 123°08'2 3.8
2017-Jun-18 01:30N 48°59' W 123°09'815.5
2017-Jun-18 00:59N 48°53' W 123°18'2 3.7
2017-Jun-18 00:29N 48°51' W 123°19'1 1.6
2017-Jun-17 23:56N 48°51' W 123°20'3 6.4
2017-Jun-17 23:30N 48°48' W 123°19'4 7.2
2017-Jun-17 22:53N 48°50' W 123°25'0 0.2
2017-Jun-17 20:30N 48°50' W 123°25'612.8
2017-Jun-17 20:00N 48°54' W 123°17'815.4
2017-Jun-17 19:30N 48°60' W 123°09'1 1.8
2017-Jun-17 18:49N 49°00' W 123°08'413.3
2017-Jun-17 18:29N 48°57' W 123°12'715.1
2017-Jun-17 18:01N 48°51' W 123°19'1 1.1
2017-Jun-17 17:11N 48°51' W 123°20'1 5.2
2017-Jun-17 16:55N 48°52' W 123°19'1 2.1
2017-Jun-17 16:24N 48°53' W 123°18'615.0
2017-Jun-17 15:59N 48°58' W 123°12'4 4.8
2017-Jun-17 15:11N 49°00' W 123°08'0 0.0
2017-Jun-17 14:48N 49°00' W 123°08'1214.0
2017-Jun-17 13:56N 48°52' W 123°21'3 0.4
2017-Jun-17 05:42N 48°50' W 123°25'314.4
2017-Jun-17 05:30N 48°48' W 123°22'1 2.6
2017-Jun-17 05:00N 48°48' W 123°20'6 6.1
2017-Jun-17 04:04N 48°54' W 123°17'115.0
2017-Jun-17 04:00N 48°54' W 123°17'815.0
2017-Jun-17 03:30N 48°60' W 123°08'1 0.8
2017-Jun-17 02:41N 49°00' W 123°08'0 0.2
2017-Jun-17 02:27N 49°00' W 123°08'1114.8
2017-Jun-17 01:43N 48°52' W 123°18'2 7.6
2017-Jun-17 01:30N 48°51' W 123°20'0 0.8
2017-Jun-17 00:54N 48°51' W 123°20'2 4.6
2017-Jun-17 00:29N 48°53' W 123°19'2 4.8
2017-Jun-16 23:59N 48°55' W 123°17'715.2
2017-Jun-16 23:30N 48°60' W 123°09'1 1.6
2017-Jun-16 23:00N 49°00' W 123°08'0 0.1
2017-Jun-16 22:27N 49°00' W 123°08'1214.2
2017-Jun-16 21:39N 48°51' W 123°19'213.2
2017-Jun-16 21:31N 48°51' W 123°22'2 1.7
2017-Jun-16 20:05N 48°50' W 123°25'213.9
2017-Jun-16 19:54N 48°48' W 123°23'3 5.9
2017-Jun-16 19:28N 48°48' W 123°19'3 4.2
2017-Jun-16 18:50N 48°51' W 123°20'3 3.3
2017-Jun-16 18:00N 48°53' W 123°18'815.3
2017-Jun-16 17:30N 48°59' W 123°10'2 3.2
2017-Jun-16 16:51N 49°00' W 123°08'0 0.0
2017-Jun-16 16:21N 49°00' W 123°08'3 7.7
2017-Jun-16 15:58N 48°58' W 123°10'9 9.2
2017-Jun-16 14:57N 48°52' W 123°21'1 2.0
2017-Jun-16 14:24N 48°51' W 123°20'3 3.8
2017-Jun-16 13:29N 48°50' W 123°25'2 0.5
2017-Jun-16 10:10N 48°51' W 123°27'  

Dump ship's entire track history